sensor_id;sensor_type;location;lat;lon;timestamp;P1;durP1;ratioP1;P2;durP2;ratioP2
49590;SDS011;35496;-21.974;-46.800;2023-12-20T00:02:07;7.75;;;3.88;;
49590;SDS011;35496;-21.974;-46.800;2023-12-20T00:04:33;8.65;;;4.70;;
49590;SDS011;35496;-21.974;-46.800;2023-12-20T00:07:00;5.80;;;3.35;;
49590;SDS011;35496;-21.974;-46.800;2023-12-20T00:09:27;4.75;;;4.07;;
49590;SDS011;35496;-21.974;-46.800;2023-12-20T00:11:53;6.40;;;4.80;;
49590;SDS011;35496;-21.974;-46.800;2023-12-20T00:14:20;5.80;;;4.20;;
49590;SDS011;35496;-21.974;-46.800;2023-12-20T00:16:46;6.40;;;4.57;;
49590;SDS011;35496;-21.974;-46.800;2023-12-20T00:19:13;5.05;;;4.65;;
49590;SDS011;35496;-21.974;-46.800;2023-12-20T00:21:40;8.02;;;4.03;;
49590;SDS011;35496;-21.974;-46.800;2023-12-20T00:24:06;5.05;;;4.50;;
49590;SDS011;35496;-21.974;-46.800;2023-12-20T00:26:33;5.13;;;4.18;;
49590;SDS011;35496;-21.974;-46.800;2023-12-20T00:28:59;5.00;;;4.50;;
49590;SDS011;35496;-21.974;-46.800;2023-12-20T00:31:26;4.90;;;4.47;;
49590;SDS011;35496;-21.974;-46.800;2023-12-20T00:33:52;4.13;;;3.72;;
49590;SDS011;35496;-21.974;-46.800;2023-12-20T00:36:19;3.72;;;3.17;;
49590;SDS011;35496;-21.974;-46.800;2023-12-20T00:38:46;6.38;;;4.93;;
49590;SDS011;35496;-21.974;-46.800;2023-12-20T00:41:13;7.25;;;4.75;;
49590;SDS011;35496;-21.974;-46.800;2023-12-20T00:43:40;7.38;;;4.95;;
49590;SDS011;35496;-21.974;-46.800;2023-12-20T00:46:06;5.38;;;4.03;;
49590;SDS011;35496;-21.974;-46.800;2023-12-20T00:48:33;7.30;;;5.20;;
49590;SDS011;35496;-21.974;-46.800;2023-12-20T00:51:00;8.45;;;4.95;;
49590;SDS011;35496;-21.974;-46.800;2023-12-20T00:53:26;5.53;;;4.63;;
49590;SDS011;35496;-21.974;-46.800;2023-12-20T00:55:53;8.80;;;4.85;;
49590;SDS011;35496;-21.974;-46.800;2023-12-20T00:58:19;5.72;;;4.90;;
49590;SDS011;35496;-21.974;-46.800;2023-12-20T01:00:49;8.10;;;5.10;;
49590;SDS011;35496;-21.974;-46.800;2023-12-20T01:03:16;10.43;;;4.93;;
49590;SDS011;35496;-21.974;-46.800;2023-12-20T01:05:43;9.02;;;5.40;;
49590;SDS011;35496;-21.974;-46.800;2023-12-20T01:08:09;8.18;;;5.10;;
49590;SDS011;35496;-21.974;-46.800;2023-12-20T01:10:36;9.23;;;5.82;;
49590;SDS011;35496;-21.974;-46.800;2023-12-20T01:13:02;5.50;;;3.88;;
49590;SDS011;35496;-21.974;-46.800;2023-12-20T01:15:29;6.72;;;4.43;;
49590;SDS011;35496;-21.974;-46.800;2023-12-20T01:17:55;4.82;;;4.43;;
49590;SDS011;35496;-21.974;-46.800;2023-12-20T01:20:24;5.40;;;4.82;;
49590;SDS011;35496;-21.974;-46.800;2023-12-20T01:22:50;6.55;;;5.03;;
49590;SDS011;35496;-21.974;-46.800;2023-12-20T01:25:17;6.88;;;5.35;;
49590;SDS011;35496;-21.974;-46.800;2023-12-20T01:27:44;7.65;;;5.38;;
49590;SDS011;35496;-21.974;-46.800;2023-12-20T01:30:10;5.75;;;5.25;;
49590;SDS011;35496;-21.974;-46.800;2023-12-20T01:32:37;8.55;;;4.85;;
49590;SDS011;35496;-21.974;-46.800;2023-12-20T01:35:04;7.32;;;4.70;;
49590;SDS011;35496;-21.974;-46.800;2023-12-20T01:37:30;6.75;;;4.63;;
49590;SDS011;35496;-21.974;-46.800;2023-12-20T01:39:57;7.72;;;4.13;;
49590;SDS011;35496;-21.974;-46.800;2023-12-20T01:42:24;8.10;;;5.10;;
49590;SDS011;35496;-21.974;-46.800;2023-12-20T01:44:50;5.55;;;4.82;;
49590;SDS011;35496;-21.974;-46.800;2023-12-20T01:47:17;7.05;;;4.18;;
49590;SDS011;35496;-21.974;-46.800;2023-12-20T01:49:43;6.43;;;4.80;;
49590;SDS011;35496;-21.974;-46.800;2023-12-20T01:55:04;5.57;;;4.28;;
49590;SDS011;35496;-21.974;-46.800;2023-12-20T01:57:41;9.90;;;3.90;;
49590;SDS011;35496;-21.974;-46.800;2023-12-20T02:00:08;4.65;;;3.80;;
49590;SDS011;35496;-21.974;-46.800;2023-12-20T02:02:36;4.25;;;3.42;;
49590;SDS011;35496;-21.974;-46.800;2023-12-20T02:05:08;6.32;;;4.05;;
49590;SDS011;35496;-21.974;-46.800;2023-12-20T02:07:35;5.20;;;4.10;;
49590;SDS011;35496;-21.974;-46.800;2023-12-20T02:10:01;4.82;;;3.35;;
49590;SDS011;35496;-21.974;-46.800;2023-12-20T02:12:31;3.45;;;2.90;;
49590;SDS011;35496;-21.974;-46.800;2023-12-20T02:14:58;3.03;;;2.78;;
49590;SDS011;35496;-21.974;-46.800;2023-12-20T02:17:24;3.50;;;2.63;;
49590;SDS011;35496;-21.974;-46.800;2023-12-20T02:19:51;2.53;;;2.30;;
49590;SDS011;35496;-21.974;-46.800;2023-12-20T02:22:18;3.90;;;2.63;;
49590;SDS011;35496;-21.974;-46.800;2023-12-20T02:24:44;5.30;;;3.03;;
49590;SDS011;35496;-21.974;-46.800;2023-12-20T02:27:11;2.53;;;2.20;;
49590;SDS011;35496;-21.974;-46.800;2023-12-20T02:29:37;5.63;;;2.92;;
49590;SDS011;35496;-21.974;-46.800;2023-12-20T02:32:04;1.73;;;1.63;;
49590;SDS011;35496;-21.974;-46.800;2023-12-20T02:34:30;3.72;;;3.33;;
49590;SDS011;35496;-21.974;-46.800;2023-12-20T02:36:57;1.92;;;1.52;;
49590;SDS011;35496;-21.974;-46.800;2023-12-20T02:39:23;2.40;;;1.98;;
49590;SDS011;35496;-21.974;-46.800;2023-12-20T02:41:50;2.60;;;1.65;;
49590;SDS011;35496;-21.974;-46.800;2023-12-20T02:44:16;2.50;;;2.05;;
49590;SDS011;35496;-21.974;-46.800;2023-12-20T02:46:43;2.05;;;1.95;;
49590;SDS011;35496;-21.974;-46.800;2023-12-20T02:49:10;1.33;;;1.30;;
49590;SDS011;35496;-21.974;-46.800;2023-12-20T02:51:36;1.63;;;1.52;;
49590;SDS011;35496;-21.974;-46.800;2023-12-20T02:54:06;2.13;;;1.77;;
49590;SDS011;35496;-21.974;-46.800;2023-12-20T02:56:32;1.70;;;1.60;;
49590;SDS011;35496;-21.974;-46.800;2023-12-20T02:58:59;2.53;;;1.33;;
49590;SDS011;35496;-21.974;-46.800;2023-12-20T03:01:26;2.00;;;1.58;;
49590;SDS011;35496;-21.974;-46.800;2023-12-20T03:03:53;3.30;;;1.08;;
49590;SDS011;35496;-21.974;-46.800;2023-12-20T03:06:20;1.67;;;1.45;;
49590;SDS011;35496;-21.974;-46.800;2023-12-20T03:08:46;1.30;;;1.20;;
49590;SDS011;35496;-21.974;-46.800;2023-12-20T03:11:13;2.25;;;1.55;;
49590;SDS011;35496;-21.974;-46.800;2023-12-20T03:13:39;3.05;;;1.23;;
49590;SDS011;35496;-21.974;-46.800;2023-12-20T03:16:09;1.98;;;1.42;;
49590;SDS011;35496;-21.974;-46.800;2023-12-20T03:18:36;1.48;;;1.38;;
49590;SDS011;35496;-21.974;-46.800;2023-12-20T03:21:03;1.15;;;1.13;;
49590;SDS011;35496;-21.974;-46.800;2023-12-20T03:23:30;1.17;;;1.17;;
49590;SDS011;35496;-21.974;-46.800;2023-12-20T03:26:00;3.20;;;1.75;;
49590;SDS011;35496;-21.974;-46.800;2023-12-20T03:28:27;1.52;;;1.42;;
49590;SDS011;35496;-21.974;-46.800;2023-12-20T03:30:53;1.77;;;1.65;;
49590;SDS011;35496;-21.974;-46.800;2023-12-20T03:33:20;1.25;;;0.90;;
49590;SDS011;35496;-21.974;-46.800;2023-12-20T03:35:46;1.38;;;1.27;;
49590;SDS011;35496;-21.974;-46.800;2023-12-20T03:38:13;1.35;;;1.15;;
49590;SDS011;35496;-21.974;-46.800;2023-12-20T03:40:39;4.38;;;1.40;;
49590;SDS011;35496;-21.974;-46.800;2023-12-20T03:43:06;2.72;;;1.88;;
49590;SDS011;35496;-21.974;-46.800;2023-12-20T03:45:33;1.73;;;1.50;;
49590;SDS011;35496;-21.974;-46.800;2023-12-20T03:47:59;1.95;;;1.75;;
49590;SDS011;35496;-21.974;-46.800;2023-12-20T03:50:26;3.08;;;1.35;;
49590;SDS011;35496;-21.974;-46.800;2023-12-20T03:52:52;2.25;;;2.13;;
49590;SDS011;35496;-21.974;-46.800;2023-12-20T03:55:19;1.52;;;1.02;;
49590;SDS011;35496;-21.974;-46.800;2023-12-20T03:57:45;2.15;;;1.65;;
49590;SDS011;35496;-21.974;-46.800;2023-12-20T04:00:12;3.53;;;1.38;;
49590;SDS011;35496;-21.974;-46.800;2023-12-20T04:02:39;3.15;;;1.70;;
49590;SDS011;35496;-21.974;-46.800;2023-12-20T04:05:08;1.25;;;1.17;;
49590;SDS011;35496;-21.974;-46.800;2023-12-20T04:07:36;3.38;;;1.52;;
49590;SDS011;35496;-21.974;-46.800;2023-12-20T04:10:03;4.78;;;1.88;;
49590;SDS011;35496;-21.974;-46.800;2023-12-20T04:12:30;1.95;;;1.85;;
49590;SDS011;35496;-21.974;-46.800;2023-12-20T04:14:57;1.85;;;1.63;;
49590;SDS011;35496;-21.974;-46.800;2023-12-20T04:17:23;2.55;;;2.35;;
49590;SDS011;35496;-21.974;-46.800;2023-12-20T04:19:50;4.95;;;2.08;;
49590;SDS011;35496;-21.974;-46.800;2023-12-20T04:22:17;1.20;;;1.20;;
49590;SDS011;35496;-21.974;-46.800;2023-12-20T04:24:45;2.30;;;1.65;;
49590;SDS011;35496;-21.974;-46.800;2023-12-20T04:27:11;2.65;;;1.70;;
49590;SDS011;35496;-21.974;-46.800;2023-12-20T04:29:38;3.13;;;1.70;;
49590;SDS011;35496;-21.974;-46.800;2023-12-20T04:32:04;7.10;;;2.13;;
49590;SDS011;35496;-21.974;-46.800;2023-12-20T04:34:31;2.05;;;1.77;;
49590;SDS011;35496;-21.974;-46.800;2023-12-20T04:36:58;2.42;;;2.00;;
49590;SDS011;35496;-21.974;-46.800;2023-12-20T04:39:24;5.47;;;2.63;;
49590;SDS011;35496;-21.974;-46.800;2023-12-20T04:41:51;6.40;;;1.67;;
49590;SDS011;35496;-21.974;-46.800;2023-12-20T04:44:17;6.15;;;1.67;;
49590;SDS011;35496;-21.974;-46.800;2023-12-20T04:46:44;2.33;;;1.80;;
49590;SDS011;35496;-21.974;-46.800;2023-12-20T04:49:10;2.00;;;1.55;;
49590;SDS011;35496;-21.974;-46.800;2023-12-20T04:51:37;2.83;;;1.52;;
49590;SDS011;35496;-21.974;-46.800;2023-12-20T04:54:03;4.15;;;1.30;;
49590;SDS011;35496;-21.974;-46.800;2023-12-20T04:56:30;3.85;;;1.75;;
49590;SDS011;35496;-21.974;-46.800;2023-12-20T04:58:57;2.75;;;1.70;;
49590;SDS011;35496;-21.974;-46.800;2023-12-20T05:01:24;7.40;;;1.73;;
49590;SDS011;35496;-21.974;-46.800;2023-12-20T05:03:50;2.13;;;1.92;;
49590;SDS011;35496;-21.974;-46.800;2023-12-20T05:06:17;4.13;;;2.55;;
49590;SDS011;35496;-21.974;-46.800;2023-12-20T05:08:43;5.18;;;2.28;;
49590;SDS011;35496;-21.974;-46.800;2023-12-20T05:11:10;1.73;;;1.60;;
49590;SDS011;35496;-21.974;-46.800;2023-12-20T05:13:38;11.55;;;2.15;;
49590;SDS011;35496;-21.974;-46.800;2023-12-20T05:16:05;1.98;;;1.80;;
49590;SDS011;35496;-21.974;-46.800;2023-12-20T05:18:31;2.10;;;2.00;;
49590;SDS011;35496;-21.974;-46.800;2023-12-20T05:20:58;2.65;;;1.95;;
49590;SDS011;35496;-21.974;-46.800;2023-12-20T05:23:25;2.10;;;1.95;;
49590;SDS011;35496;-21.974;-46.800;2023-12-20T05:25:51;2.40;;;1.75;;
49590;SDS011;35496;-21.974;-46.800;2023-12-20T05:28:18;2.35;;;2.10;;
49590;SDS011;35496;-21.974;-46.800;2023-12-20T05:30:44;3.05;;;2.78;;
49590;SDS011;35496;-21.974;-46.800;2023-12-20T05:33:11;3.70;;;1.98;;
49590;SDS011;35496;-21.974;-46.800;2023-12-20T05:35:37;4.10;;;1.90;;
49590;SDS011;35496;-21.974;-46.800;2023-12-20T05:38:04;2.45;;;2.00;;
49590;SDS011;35496;-21.974;-46.800;2023-12-20T05:40:30;2.40;;;2.22;;
49590;SDS011;35496;-21.974;-46.800;2023-12-20T05:42:57;3.05;;;1.60;;
49590;SDS011;35496;-21.974;-46.800;2023-12-20T05:45:23;1.77;;;1.63;;
49590;SDS011;35496;-21.974;-46.800;2023-12-20T05:47:50;2.65;;;2.17;;
49590;SDS011;35496;-21.974;-46.800;2023-12-20T05:50:16;5.90;;;1.80;;
49590;SDS011;35496;-21.974;-46.800;2023-12-20T05:52:43;5.55;;;2.20;;
49590;SDS011;35496;-21.974;-46.800;2023-12-20T05:55:09;3.15;;;2.35;;
49590;SDS011;35496;-21.974;-46.800;2023-12-20T05:57:36;2.40;;;1.95;;
49590;SDS011;35496;-21.974;-46.800;2023-12-20T06:00:02;4.03;;;2.40;;
49590;SDS011;35496;-21.974;-46.800;2023-12-20T06:02:29;5.38;;;2.22;;
49590;SDS011;35496;-21.974;-46.800;2023-12-20T06:04:56;3.42;;;1.92;;
49590;SDS011;35496;-21.974;-46.800;2023-12-20T06:07:23;3.00;;;1.67;;
49590;SDS011;35496;-21.974;-46.800;2023-12-20T06:09:49;5.95;;;2.60;;
49590;SDS011;35496;-21.974;-46.800;2023-12-20T06:12:16;2.65;;;2.45;;
49590;SDS011;35496;-21.974;-46.800;2023-12-20T06:14:42;3.30;;;2.40;;
49590;SDS011;35496;-21.974;-46.800;2023-12-20T06:17:09;3.05;;;2.35;;
49590;SDS011;35496;-21.974;-46.800;2023-12-20T06:19:35;2.60;;;2.40;;
49590;SDS011;35496;-21.974;-46.800;2023-12-20T06:22:02;3.70;;;2.95;;
49590;SDS011;35496;-21.974;-46.800;2023-12-20T06:24:29;2.65;;;2.45;;
49590;SDS011;35496;-21.974;-46.800;2023-12-20T06:26:55;3.08;;;2.25;;
49590;SDS011;35496;-21.974;-46.800;2023-12-20T06:29:22;4.97;;;2.45;;
49590;SDS011;35496;-21.974;-46.800;2023-12-20T06:31:49;5.30;;;2.47;;
49590;SDS011;35496;-21.974;-46.800;2023-12-20T06:34:15;6.90;;;3.15;;
49590;SDS011;35496;-21.974;-46.800;2023-12-20T06:36:42;1.92;;;1.83;;
49590;SDS011;35496;-21.974;-46.800;2023-12-20T06:39:08;3.97;;;2.30;;
49590;SDS011;35496;-21.974;-46.800;2023-12-20T06:41:38;7.60;;;2.85;;
49590;SDS011;35496;-21.974;-46.800;2023-12-20T06:44:04;3.28;;;2.97;;
49590;SDS011;35496;-21.974;-46.800;2023-12-20T06:46:31;11.07;;;2.65;;
49590;SDS011;35496;-21.974;-46.800;2023-12-20T06:48:58;3.80;;;2.67;;
49590;SDS011;35496;-21.974;-46.800;2023-12-20T06:51:24;2.45;;;2.30;;
49590;SDS011;35496;-21.974;-46.800;2023-12-20T06:53:51;6.30;;;2.72;;
49590;SDS011;35496;-21.974;-46.800;2023-12-20T06:56:18;3.05;;;2.83;;
49590;SDS011;35496;-21.974;-46.800;2023-12-20T06:58:44;4.97;;;2.80;;
49590;SDS011;35496;-21.974;-46.800;2023-12-20T07:01:12;3.55;;;3.25;;
49590;SDS011;35496;-21.974;-46.800;2023-12-20T07:03:41;3.85;;;3.28;;
49590;SDS011;35496;-21.974;-46.800;2023-12-20T07:06:08;4.20;;;3.10;;
49590;SDS011;35496;-21.974;-46.800;2023-12-20T07:08:34;6.13;;;3.20;;
49590;SDS011;35496;-21.974;-46.800;2023-12-20T07:11:01;2.60;;;2.40;;
49590;SDS011;35496;-21.974;-46.800;2023-12-20T07:13:27;5.25;;;3.35;;
49590;SDS011;35496;-21.974;-46.800;2023-12-20T07:15:54;8.20;;;4.72;;
49590;SDS011;35496;-21.974;-46.800;2023-12-20T07:18:20;3.17;;;2.50;;
49590;SDS011;35496;-21.974;-46.800;2023-12-20T07:20:47;3.72;;;2.80;;
49590;SDS011;35496;-21.974;-46.800;2023-12-20T07:23:13;3.97;;;2.45;;
49590;SDS011;35496;-21.974;-46.800;2023-12-20T07:25:40;6.43;;;3.25;;
49590;SDS011;35496;-21.974;-46.800;2023-12-20T07:28:07;7.05;;;3.00;;
49590;SDS011;35496;-21.974;-46.800;2023-12-20T07:30:33;9.35;;;5.05;;
49590;SDS011;35496;-21.974;-46.800;2023-12-20T07:32:59;3.97;;;2.33;;
49590;SDS011;35496;-21.974;-46.800;2023-12-20T07:35:26;3.13;;;2.83;;
49590;SDS011;35496;-21.974;-46.800;2023-12-20T07:37:53;6.22;;;3.80;;
49590;SDS011;35496;-21.974;-46.800;2023-12-20T07:40:19;2.78;;;2.58;;
49590;SDS011;35496;-21.974;-46.800;2023-12-20T07:42:46;4.28;;;3.10;;
49590;SDS011;35496;-21.974;-46.800;2023-12-20T07:45:12;3.45;;;3.15;;
49590;SDS011;35496;-21.974;-46.800;2023-12-20T07:47:39;4.22;;;2.35;;
49590;SDS011;35496;-21.974;-46.800;2023-12-20T07:50:06;3.88;;;2.53;;
49590;SDS011;35496;-21.974;-46.800;2023-12-20T07:52:33;2.92;;;2.60;;
49590;SDS011;35496;-21.974;-46.800;2023-12-20T07:54:59;3.75;;;2.67;;
49590;SDS011;35496;-21.974;-46.800;2023-12-20T07:57:29;3.95;;;3.17;;
49590;SDS011;35496;-21.974;-46.800;2023-12-20T07:59:56;3.38;;;3.00;;
49590;SDS011;35496;-21.974;-46.800;2023-12-20T08:02:22;4.78;;;2.53;;
49590;SDS011;35496;-21.974;-46.800;2023-12-20T08:04:49;4.00;;;2.83;;
49590;SDS011;35496;-21.974;-46.800;2023-12-20T08:07:15;5.07;;;2.70;;
49590;SDS011;35496;-21.974;-46.800;2023-12-20T08:09:42;3.67;;;3.45;;
49590;SDS011;35496;-21.974;-46.800;2023-12-20T08:12:09;2.88;;;2.33;;
49590;SDS011;35496;-21.974;-46.800;2023-12-20T08:14:36;5.00;;;2.90;;
49590;SDS011;35496;-21.974;-46.800;2023-12-20T08:17:03;4.63;;;2.45;;
49590;SDS011;35496;-21.974;-46.800;2023-12-20T08:19:29;4.90;;;3.30;;
49590;SDS011;35496;-21.974;-46.800;2023-12-20T08:21:56;3.30;;;2.60;;
49590;SDS011;35496;-21.974;-46.800;2023-12-20T08:24:22;2.95;;;2.67;;
49590;SDS011;35496;-21.974;-46.800;2023-12-20T08:26:49;5.03;;;2.88;;
49590;SDS011;35496;-21.974;-46.800;2023-12-20T08:29:15;3.15;;;2.85;;
49590;SDS011;35496;-21.974;-46.800;2023-12-20T08:31:42;3.75;;;2.85;;
49590;SDS011;35496;-21.974;-46.800;2023-12-20T08:34:08;6.15;;;3.22;;
49590;SDS011;35496;-21.974;-46.800;2023-12-20T08:36:37;3.15;;;2.85;;
49590;SDS011;35496;-21.974;-46.800;2023-12-20T08:39:03;5.03;;;3.35;;
49590;SDS011;35496;-21.974;-46.800;2023-12-20T08:41:32;4.88;;;2.95;;
49590;SDS011;35496;-21.974;-46.800;2023-12-20T08:43:59;5.60;;;3.63;;
49590;SDS011;35496;-21.974;-46.800;2023-12-20T08:46:25;4.13;;;3.15;;
49590;SDS011;35496;-21.974;-46.800;2023-12-20T08:48:52;3.75;;;3.40;;
49590;SDS011;35496;-21.974;-46.800;2023-12-20T08:51:18;4.13;;;3.40;;
49590;SDS011;35496;-21.974;-46.800;2023-12-20T08:53:48;4.40;;;3.90;;
49590;SDS011;35496;-21.974;-46.800;2023-12-20T08:56:14;5.30;;;3.10;;
49590;SDS011;35496;-21.974;-46.800;2023-12-20T08:58:42;4.70;;;3.78;;
49590;SDS011;35496;-21.974;-46.800;2023-12-20T09:01:08;3.75;;;3.38;;
49590;SDS011;35496;-21.974;-46.800;2023-12-20T09:03:35;3.33;;;3.03;;
49590;SDS011;35496;-21.974;-46.800;2023-12-20T09:06:01;4.18;;;3.83;;
49590;SDS011;35496;-21.974;-46.800;2023-12-20T09:08:28;4.35;;;3.70;;
49590;SDS011;35496;-21.974;-46.800;2023-12-20T09:10:54;8.40;;;3.90;;
49590;SDS011;35496;-21.974;-46.800;2023-12-20T09:13:21;4.90;;;3.50;;
49590;SDS011;35496;-21.974;-46.800;2023-12-20T09:15:52;4.57;;;4.17;;
49590;SDS011;35496;-21.974;-46.800;2023-12-20T09:18:18;6.03;;;3.17;;
49590;SDS011;35496;-21.974;-46.800;2023-12-20T09:20:45;4.10;;;3.80;;
49590;SDS011;35496;-21.974;-46.800;2023-12-20T09:23:12;4.97;;;3.75;;
49590;SDS011;35496;-21.974;-46.800;2023-12-20T09:25:38;4.20;;;3.72;;
49590;SDS011;35496;-21.974;-46.800;2023-12-20T09:28:05;4.72;;;4.30;;
49590;SDS011;35496;-21.974;-46.800;2023-12-20T09:30:31;7.88;;;4.28;;
49590;SDS011;35496;-21.974;-46.800;2023-12-20T09:32:58;6.95;;;4.72;;
49590;SDS011;35496;-21.974;-46.800;2023-12-20T09:35:25;4.80;;;4.40;;
49590;SDS011;35496;-21.974;-46.800;2023-12-20T09:37:51;4.72;;;4.32;;
49590;SDS011;35496;-21.974;-46.800;2023-12-20T09:40:18;4.13;;;3.58;;
49590;SDS011;35496;-21.974;-46.800;2023-12-20T09:42:50;4.15;;;3.72;;
49590;SDS011;35496;-21.974;-46.800;2023-12-20T09:45:23;4.65;;;4.25;;
49590;SDS011;35496;-21.974;-46.800;2023-12-20T09:47:50;4.85;;;4.35;;
49590;SDS011;35496;-21.974;-46.800;2023-12-20T09:50:19;5.03;;;4.13;;
49590;SDS011;35496;-21.974;-46.800;2023-12-20T09:52:50;6.20;;;4.05;;
49590;SDS011;35496;-21.974;-46.800;2023-12-20T09:55:18;5.27;;;4.77;;
49590;SDS011;35496;-21.974;-46.800;2023-12-20T09:57:48;4.35;;;3.95;;
49590;SDS011;35496;-21.974;-46.800;2023-12-20T10:00:15;7.28;;;4.07;;
49590;SDS011;35496;-21.974;-46.800;2023-12-20T10:02:49;5.00;;;4.63;;
49590;SDS011;35496;-21.974;-46.800;2023-12-20T10:05:17;5.10;;;4.60;;
49590;SDS011;35496;-21.974;-46.800;2023-12-20T10:07:47;4.18;;;3.78;;
49590;SDS011;35496;-21.974;-46.800;2023-12-20T10:10:13;5.53;;;4.65;;
49590;SDS011;35496;-21.974;-46.800;2023-12-20T10:12:40;9.65;;;5.03;;
49590;SDS011;35496;-21.974;-46.800;2023-12-20T10:15:07;4.38;;;3.83;;
49590;SDS011;35496;-21.974;-46.800;2023-12-20T10:17:35;4.93;;;4.35;;
49590;SDS011;35496;-21.974;-46.800;2023-12-20T10:20:02;5.03;;;4.55;;
49590;SDS011;35496;-21.974;-46.800;2023-12-20T10:22:34;4.53;;;3.72;;
49590;SDS011;35496;-21.974;-46.800;2023-12-20T10:25:01;4.38;;;3.97;;
49590;SDS011;35496;-21.974;-46.800;2023-12-20T10:27:27;5.95;;;3.33;;
49590;SDS011;35496;-21.974;-46.800;2023-12-20T10:29:54;5.75;;;3.60;;
49590;SDS011;35496;-21.974;-46.800;2023-12-20T10:32:24;3.78;;;3.42;;
49590;SDS011;35496;-21.974;-46.800;2023-12-20T10:34:52;4.00;;;3.63;;
49590;SDS011;35496;-21.974;-46.800;2023-12-20T10:37:19;3.95;;;3.55;;
49590;SDS011;35496;-21.974;-46.800;2023-12-20T10:39:52;3.30;;;2.47;;
49590;SDS011;35496;-21.974;-46.800;2023-12-20T10:42:26;2.80;;;2.25;;
49590;SDS011;35496;-21.974;-46.800;2023-12-20T10:44:53;4.57;;;3.38;;
49590;SDS011;35496;-21.974;-46.800;2023-12-20T10:47:20;3.00;;;2.67;;
49590;SDS011;35496;-21.974;-46.800;2023-12-20T10:49:46;3.72;;;2.67;;
49590;SDS011;35496;-21.974;-46.800;2023-12-20T10:52:13;3.20;;;2.92;;
49590;SDS011;35496;-21.974;-46.800;2023-12-20T10:54:40;4.05;;;3.33;;
49590;SDS011;35496;-21.974;-46.800;2023-12-20T10:57:06;4.97;;;2.55;;
49590;SDS011;35496;-21.974;-46.800;2023-12-20T10:59:33;2.97;;;2.22;;
49590;SDS011;35496;-21.974;-46.800;2023-12-20T11:02:03;2.97;;;2.72;;
49590;SDS011;35496;-21.974;-46.800;2023-12-20T11:07:11;3.28;;;2.15;;
49590;SDS011;35496;-21.974;-46.800;2023-12-20T11:10:46;2.60;;;2.30;;
49590;SDS011;35496;-21.974;-46.800;2023-12-20T11:13:22;2.35;;;2.00;;
49590;SDS011;35496;-21.974;-46.800;2023-12-20T11:15:52;5.03;;;2.97;;
49590;SDS011;35496;-21.974;-46.800;2023-12-20T11:18:19;2.67;;;2.47;;
49590;SDS011;35496;-21.974;-46.800;2023-12-20T11:20:45;3.40;;;2.63;;
49590;SDS011;35496;-21.974;-46.800;2023-12-20T11:23:12;3.65;;;2.50;;
49590;SDS011;35496;-21.974;-46.800;2023-12-20T11:25:49;2.65;;;2.45;;
49590;SDS011;35496;-21.974;-46.800;2023-12-20T11:28:22;5.75;;;2.40;;
49590;SDS011;35496;-21.974;-46.800;2023-12-20T11:30:50;2.45;;;2.25;;
49590;SDS011;35496;-21.974;-46.800;2023-12-20T11:33:21;3.90;;;2.03;;
49590;SDS011;35496;-21.974;-46.800;2023-12-20T11:35:49;3.65;;;2.35;;
49590;SDS011;35496;-21.974;-46.800;2023-12-20T11:38:15;3.75;;;2.08;;
49590;SDS011;35496;-21.974;-46.800;2023-12-20T11:40:42;2.50;;;1.92;;
49590;SDS011;35496;-21.974;-46.800;2023-12-20T11:43:09;3.10;;;2.85;;
49590;SDS011;35496;-21.974;-46.800;2023-12-20T11:45:36;3.35;;;2.47;;
49590;SDS011;35496;-21.974;-46.800;2023-12-20T11:48:03;3.03;;;2.63;;
49590;SDS011;35496;-21.974;-46.800;2023-12-20T11:50:29;5.38;;;2.25;;
49590;SDS011;35496;-21.974;-46.800;2023-12-20T11:52:56;4.78;;;2.80;;
49590;SDS011;35496;-21.974;-46.800;2023-12-20T11:55:23;3.72;;;2.35;;
49590;SDS011;35496;-21.974;-46.800;2023-12-20T11:57:50;3.42;;;2.83;;
49590;SDS011;35496;-21.974;-46.800;2023-12-20T12:00:17;2.25;;;2.15;;
49590;SDS011;35496;-21.974;-46.800;2023-12-20T12:02:54;2.08;;;1.98;;
49590;SDS011;35496;-21.974;-46.800;2023-12-20T12:05:22;3.33;;;2.50;;
49590;SDS011;35496;-21.974;-46.800;2023-12-20T12:07:48;2.38;;;2.15;;
49590;SDS011;35496;-21.974;-46.800;2023-12-20T12:10:15;2.88;;;2.28;;
49590;SDS011;35496;-21.974;-46.800;2023-12-20T12:12:41;3.90;;;2.65;;
49590;SDS011;35496;-21.974;-46.800;2023-12-20T12:15:08;3.30;;;2.95;;
49590;SDS011;35496;-21.974;-46.800;2023-12-20T12:17:35;3.38;;;2.08;;
49590;SDS011;35496;-21.974;-46.800;2023-12-20T12:20:05;3.97;;;2.70;;
49590;SDS011;35496;-21.974;-46.800;2023-12-20T12:22:33;2.95;;;2.30;;
49590;SDS011;35496;-21.974;-46.800;2023-12-20T12:25:10;4.88;;;2.78;;
49590;SDS011;35496;-21.974;-46.800;2023-12-20T12:27:41;4.28;;;2.13;;
49590;SDS011;35496;-21.974;-46.800;2023-12-20T12:30:08;4.28;;;3.15;;
49590;SDS011;35496;-21.974;-46.800;2023-12-20T12:32:35;5.00;;;2.33;;
49590;SDS011;35496;-21.974;-46.800;2023-12-20T12:35:03;2.75;;;2.55;;
49590;SDS011;35496;-21.974;-46.800;2023-12-20T12:37:33;3.17;;;2.97;;
49590;SDS011;35496;-21.974;-46.800;2023-12-20T12:40:01;2.17;;;2.03;;
49590;SDS011;35496;-21.974;-46.800;2023-12-20T12:42:27;4.57;;;2.35;;
49590;SDS011;35496;-21.974;-46.800;2023-12-20T12:44:54;2.78;;;2.42;;
49590;SDS011;35496;-21.974;-46.800;2023-12-20T12:47:21;3.63;;;2.47;;
49590;SDS011;35496;-21.974;-46.800;2023-12-20T12:49:49;3.00;;;2.55;;
49590;SDS011;35496;-21.974;-46.800;2023-12-20T12:52:18;3.33;;;3.03;;
49590;SDS011;35496;-21.974;-46.800;2023-12-20T12:54:45;3.17;;;2.80;;
49590;SDS011;35496;-21.974;-46.800;2023-12-20T12:57:13;3.00;;;1.80;;
49590;SDS011;35496;-21.974;-46.800;2023-12-20T12:59:40;5.78;;;2.75;;
49590;SDS011;35496;-21.974;-46.800;2023-12-20T13:02:07;2.53;;;2.33;;
49590;SDS011;35496;-21.974;-46.800;2023-12-20T13:04:34;2.33;;;2.17;;
49590;SDS011;35496;-21.974;-46.800;2023-12-20T13:07:00;3.78;;;3.03;;
49590;SDS011;35496;-21.974;-46.800;2023-12-20T13:09:27;2.22;;;2.00;;
49590;SDS011;35496;-21.974;-46.800;2023-12-20T13:11:53;2.80;;;2.60;;
49590;SDS011;35496;-21.974;-46.800;2023-12-20T13:14:20;2.25;;;2.15;;
49590;SDS011;35496;-21.974;-46.800;2023-12-20T13:16:47;3.25;;;2.70;;
49590;SDS011;35496;-21.974;-46.800;2023-12-20T13:19:13;3.35;;;2.13;;
49590;SDS011;35496;-21.974;-46.800;2023-12-20T13:21:40;3.05;;;2.55;;
49590;SDS011;35496;-21.974;-46.800;2023-12-20T13:24:07;3.22;;;1.95;;
49590;SDS011;35496;-21.974;-46.800;2023-12-20T13:26:33;4.03;;;2.50;;
49590;SDS011;35496;-21.974;-46.800;2023-12-20T13:29:00;2.40;;;2.30;;
49590;SDS011;35496;-21.974;-46.800;2023-12-20T13:31:26;1.95;;;1.80;;
49590;SDS011;35496;-21.974;-46.800;2023-12-20T13:33:53;2.20;;;2.00;;
49590;SDS011;35496;-21.974;-46.800;2023-12-20T13:36:20;3.38;;;2.25;;
49590;SDS011;35496;-21.974;-46.800;2023-12-20T13:38:46;3.47;;;2.47;;
49590;SDS011;35496;-21.974;-46.800;2023-12-20T13:41:13;3.20;;;2.33;;
49590;SDS011;35496;-21.974;-46.800;2023-12-20T13:43:39;2.50;;;2.30;;
49590;SDS011;35496;-21.974;-46.800;2023-12-20T13:46:06;3.20;;;2.53;;
49590;SDS011;35496;-21.974;-46.800;2023-12-20T13:48:33;2.50;;;2.30;;
49590;SDS011;35496;-21.974;-46.800;2023-12-20T13:50:59;4.32;;;2.38;;
49590;SDS011;35496;-21.974;-46.800;2023-12-20T13:53:26;3.10;;;2.58;;
49590;SDS011;35496;-21.974;-46.800;2023-12-20T13:55:53;4.72;;;2.75;;
49590;SDS011;35496;-21.974;-46.800;2023-12-20T13:58:20;3.65;;;2.42;;
49590;SDS011;35496;-21.974;-46.800;2023-12-20T14:00:46;6.35;;;3.10;;
49590;SDS011;35496;-21.974;-46.800;2023-12-20T14:03:13;2.55;;;2.03;;
49590;SDS011;35496;-21.974;-46.800;2023-12-20T14:05:40;2.53;;;2.33;;
49590;SDS011;35496;-21.974;-46.800;2023-12-20T14:08:06;6.32;;;2.17;;
49590;SDS011;35496;-21.974;-46.800;2023-12-20T14:10:33;2.75;;;2.55;;
49590;SDS011;35496;-21.974;-46.800;2023-12-20T14:13:00;3.08;;;2.25;;
49590;SDS011;35496;-21.974;-46.800;2023-12-20T14:15:26;1.95;;;1.85;;